West Bend Municipal Airport

Current Flights

Departures
Number Departure To Airline
Arrivals
Number Arrival From Airline
Info
Name: West Bend Municipal Airport
Identifier:  ETB/KETB
Local Time:  19. Jun 16:44
City
Flights per Day
0 flights
Distance: 243km (151mi)
Punctuality
60% (0 flights per day delayed)
Delay Average: 32 minutes
Current Weather
 13 C (Humidity: 100%)
  5kt (9km/h / 5mph) from 50°
  Overcast at 500 feet (152 meter)
  16km (10 mi.)
 METAR KETB 191615Z AUTO 05005KT 10SM OVC005 13/13 A2984 RMK AO2

Current Delays

Departures
N/A
Arrivals
N/A

Destinations

Top Destinations
Airport Flights
per week
Seats
per week
  Minocqua (ARV) 2 - 0 0
  Ironwood (IWD) 1 - 0 0
  Quincy (UIN) 0 - 0 0
  Lee's Summit (QQL) 0 - 0 0
  Rhinelander (RHI) 0 - 0 0
  Knoxville (TYS) 0 - 0 0
  Milwaukee (MKE) 0 - 0 0
  Chicago (AUZ) 0 - 0 0
  Green Bay (GRB) 0 - 0 0
  Madison (MSN) 0 - 0 0
  Lynchburg (LYH) 0 - 0 0

Airlines & Planes

Top Airlines
Airline Flights
per Day
Seats
per Day
  Nolinor Aviation 0 -
  Flybe Nordic 0 -
  Novair 0 -
Nordwind Airlines 0 -
  National Airlines 0 -
Freight Runners Express 0 -
Top Plane Types
Model Flights Seats
Beech E90 King Air 0.1/day - 0
Piper PA-31-350 0.1/day - 0
Cessna C172 0.1/day - 0
Beech B300 Super King Air 350 0.1/day - 0
Short 360 0.0/day - 0
Cessna C55B 0.0/day - 0
Beech C-99 Airliner 0.0/day - 0